sensor_id;sensor_type;location;lat;lon;timestamp;P1;durP1;ratioP1;P2;durP2;ratioP2
1715;SDS011;855;48.824;9.220;2023-07-09T00:00:37;6.77;;;2.93;;
1715;SDS011;855;48.824;9.220;2023-07-09T00:03:05;7.63;;;3.93;;
1715;SDS011;855;48.824;9.220;2023-07-09T00:05:32;10.30;;;4.10;;
1715;SDS011;855;48.824;9.220;2023-07-09T00:07:59;7.10;;;2.87;;
1715;SDS011;855;48.824;9.220;2023-07-09T00:10:28;8.00;;;3.07;;
1715;SDS011;855;48.824;9.220;2023-07-09T00:12:53;5.90;;;3.17;;
1715;SDS011;855;48.824;9.220;2023-07-09T00:15:20;6.00;;;3.37;;
1715;SDS011;855;48.824;9.220;2023-07-09T00:17:47;5.63;;;3.07;;
1715;SDS011;855;48.824;9.220;2023-07-09T00:20:15;12.17;;;3.13;;
1715;SDS011;855;48.824;9.220;2023-07-09T00:22:43;6.37;;;3.33;;
1715;SDS011;855;48.824;9.220;2023-07-09T00:25:17;6.97;;;3.37;;
1715;SDS011;855;48.824;9.220;2023-07-09T00:27:46;13.17;;;3.90;;
1715;SDS011;855;48.824;9.220;2023-07-09T00:30:16;15.10;;;5.17;;
1715;SDS011;855;48.824;9.220;2023-07-09T00:32:44;10.60;;;4.20;;
1715;SDS011;855;48.824;9.220;2023-07-09T00:35:11;6.97;;;4.47;;
1715;SDS011;855;48.824;9.220;2023-07-09T00:37:40;8.57;;;4.10;;
1715;SDS011;855;48.824;9.220;2023-07-09T00:40:10;6.20;;;3.60;;
1715;SDS011;855;48.824;9.220;2023-07-09T00:42:42;7.70;;;3.93;;
1715;SDS011;855;48.824;9.220;2023-07-09T00:45:16;11.23;;;4.30;;
1715;SDS011;855;48.824;9.220;2023-07-09T00:47:47;9.97;;;4.17;;
1715;SDS011;855;48.824;9.220;2023-07-09T00:50:25;8.10;;;4.23;;
1715;SDS011;855;48.824;9.220;2023-07-09T00:53:02;7.30;;;4.10;;
1715;SDS011;855;48.824;9.220;2023-07-09T00:55:33;12.30;;;4.80;;
1715;SDS011;855;48.824;9.220;2023-07-09T00:58:05;11.10;;;4.60;;
1715;SDS011;855;48.824;9.220;2023-07-09T01:00:37;16.73;;;5.33;;
1715;SDS011;855;48.824;9.220;2023-07-09T01:03:11;8.20;;;4.20;;
1715;SDS011;855;48.824;9.220;2023-07-09T01:05:45;11.30;;;4.77;;
1715;SDS011;855;48.824;9.220;2023-07-09T01:08:16;6.93;;;3.57;;
1715;SDS011;855;48.824;9.220;2023-07-09T01:10:43;7.43;;;3.70;;
1715;SDS011;855;48.824;9.220;2023-07-09T01:13:10;9.87;;;4.83;;
1715;SDS011;855;48.824;9.220;2023-07-09T01:15:42;8.50;;;3.47;;
1715;SDS011;855;48.824;9.220;2023-07-09T01:18:09;5.20;;;3.40;;
1715;SDS011;855;48.824;9.220;2023-07-09T01:20:37;6.63;;;3.90;;
1715;SDS011;855;48.824;9.220;2023-07-09T01:23:08;6.33;;;3.23;;
1715;SDS011;855;48.824;9.220;2023-07-09T01:25:38;11.30;;;4.50;;
1715;SDS011;855;48.824;9.220;2023-07-09T01:28:09;9.03;;;3.70;;
1715;SDS011;855;48.824;9.220;2023-07-09T01:30:37;7.90;;;3.63;;
1715;SDS011;855;48.824;9.220;2023-07-09T01:33:06;8.13;;;4.77;;
1715;SDS011;855;48.824;9.220;2023-07-09T01:35:35;8.63;;;3.70;;
1715;SDS011;855;48.824;9.220;2023-07-09T01:38:09;13.50;;;3.93;;
1715;SDS011;855;48.824;9.220;2023-07-09T01:40:36;8.40;;;3.47;;
1715;SDS011;855;48.824;9.220;2023-07-09T01:43:03;11.33;;;4.20;;
1715;SDS011;855;48.824;9.220;2023-07-09T01:45:35;9.13;;;3.80;;
1715;SDS011;855;48.824;9.220;2023-07-09T01:48:04;4.70;;;2.87;;
1715;SDS011;855;48.824;9.220;2023-07-09T01:50:32;12.23;;;5.07;;
1715;SDS011;855;48.824;9.220;2023-07-09T01:53:00;8.90;;;4.70;;
1715;SDS011;855;48.824;9.220;2023-07-09T01:55:31;7.40;;;3.70;;
1715;SDS011;855;48.824;9.220;2023-07-09T01:57:58;7.23;;;3.30;;
1715;SDS011;855;48.824;9.220;2023-07-09T02:00:30;6.43;;;3.67;;
1715;SDS011;855;48.824;9.220;2023-07-09T02:02:57;9.13;;;4.57;;
1715;SDS011;855;48.824;9.220;2023-07-09T02:05:25;11.90;;;4.40;;
1715;SDS011;855;48.824;9.220;2023-07-09T02:07:55;9.10;;;4.70;;
1715;SDS011;855;48.824;9.220;2023-07-09T02:10:28;6.63;;;3.90;;
1715;SDS011;855;48.824;9.220;2023-07-09T02:12:59;8.73;;;3.57;;
1715;SDS011;855;48.824;9.220;2023-07-09T02:15:26;11.67;;;4.00;;
1715;SDS011;855;48.824;9.220;2023-07-09T02:17:55;6.50;;;3.67;;
1715;SDS011;855;48.824;9.220;2023-07-09T02:20:26;9.53;;;4.57;;
1715;SDS011;855;48.824;9.220;2023-07-09T02:22:54;10.43;;;3.53;;
1715;SDS011;855;48.824;9.220;2023-07-09T02:25:25;8.60;;;3.63;;
1715;SDS011;855;48.824;9.220;2023-07-09T02:27:58;7.93;;;3.97;;
1715;SDS011;855;48.824;9.220;2023-07-09T02:30:26;9.27;;;4.20;;
1715;SDS011;855;48.824;9.220;2023-07-09T02:32:55;8.53;;;4.20;;
1715;SDS011;855;48.824;9.220;2023-07-09T02:35:22;10.43;;;3.27;;
1715;SDS011;855;48.824;9.220;2023-07-09T02:37:49;6.87;;;3.70;;
1715;SDS011;855;48.824;9.220;2023-07-09T02:40:19;7.17;;;3.20;;
1715;SDS011;855;48.824;9.220;2023-07-09T02:42:47;8.50;;;3.37;;
1715;SDS011;855;48.824;9.220;2023-07-09T02:45:18;8.57;;;4.00;;
1715;SDS011;855;48.824;9.220;2023-07-09T02:47:45;9.40;;;3.77;;
1715;SDS011;855;48.824;9.220;2023-07-09T02:50:12;5.60;;;3.40;;
1715;SDS011;855;48.824;9.220;2023-07-09T02:52:40;11.33;;;4.10;;
1715;SDS011;855;48.824;9.220;2023-07-09T02:55:17;9.23;;;4.17;;
1715;SDS011;855;48.824;9.220;2023-07-09T02:57:45;5.50;;;3.30;;
1715;SDS011;855;48.824;9.220;2023-07-09T03:00:13;9.30;;;3.40;;
1715;SDS011;855;48.824;9.220;2023-07-09T03:02:43;8.70;;;3.53;;
1715;SDS011;855;48.824;9.220;2023-07-09T03:05:12;8.47;;;4.07;;
1715;SDS011;855;48.824;9.220;2023-07-09T03:07:41;10.50;;;4.50;;
1715;SDS011;855;48.824;9.220;2023-07-09T03:10:09;6.47;;;3.17;;
1715;SDS011;855;48.824;9.220;2023-07-09T03:12:37;11.53;;;4.70;;
1715;SDS011;855;48.824;9.220;2023-07-09T03:15:05;8.17;;;3.67;;
1715;SDS011;855;48.824;9.220;2023-07-09T03:17:36;10.20;;;3.10;;
1715;SDS011;855;48.824;9.220;2023-07-09T03:20:08;7.83;;;4.00;;
1715;SDS011;855;48.824;9.220;2023-07-09T03:22:36;7.53;;;3.87;;
1715;SDS011;855;48.824;9.220;2023-07-09T03:25:08;7.77;;;4.10;;
1715;SDS011;855;48.824;9.220;2023-07-09T03:27:42;11.43;;;4.30;;
1715;SDS011;855;48.824;9.220;2023-07-09T03:30:10;4.87;;;4.00;;
1715;SDS011;855;48.824;9.220;2023-07-09T03:32:38;8.50;;;3.70;;
1715;SDS011;855;48.824;9.220;2023-07-09T03:37:50;11.90;;;4.90;;
1715;SDS011;855;48.824;9.220;2023-07-09T03:40:20;8.43;;;3.93;;
1715;SDS011;855;48.824;9.220;2023-07-09T03:43:03;4.60;;;2.90;;
1715;SDS011;855;48.824;9.220;2023-07-09T03:45:31;7.20;;;3.20;;
1715;SDS011;855;48.824;9.220;2023-07-09T03:47:59;9.27;;;3.30;;
1715;SDS011;855;48.824;9.220;2023-07-09T03:50:32;7.30;;;3.27;;
1715;SDS011;855;48.824;9.220;2023-07-09T03:53:00;5.57;;;3.67;;
1715;SDS011;855;48.824;9.220;2023-07-09T03:55:41;12.47;;;3.63;;
1715;SDS011;855;48.824;9.220;2023-07-09T03:58:14;6.00;;;2.77;;
1715;SDS011;855;48.824;9.220;2023-07-09T04:00:43;5.80;;;3.30;;
1715;SDS011;855;48.824;9.220;2023-07-09T04:03:10;7.50;;;3.57;;
1715;SDS011;855;48.824;9.220;2023-07-09T04:05:50;8.77;;;4.03;;
1715;SDS011;855;48.824;9.220;2023-07-09T04:08:20;7.23;;;3.70;;
1715;SDS011;855;48.824;9.220;2023-07-09T04:10:52;6.70;;;2.80;;
1715;SDS011;855;48.824;9.220;2023-07-09T04:13:20;14.13;;;3.93;;
1715;SDS011;855;48.824;9.220;2023-07-09T04:15:53;5.17;;;3.53;;
1715;SDS011;855;48.824;9.220;2023-07-09T04:18:20;5.37;;;3.20;;
1715;SDS011;855;48.824;9.220;2023-07-09T04:20:48;8.10;;;4.07;;
1715;SDS011;855;48.824;9.220;2023-07-09T04:23:17;8.70;;;3.40;;
1715;SDS011;855;48.824;9.220;2023-07-09T04:25:45;10.53;;;4.27;;
1715;SDS011;855;48.824;9.220;2023-07-09T04:28:14;11.30;;;4.17;;
1715;SDS011;855;48.824;9.220;2023-07-09T04:30:45;4.43;;;3.10;;
1715;SDS011;855;48.824;9.220;2023-07-09T04:33:14;7.20;;;4.00;;
1715;SDS011;855;48.824;9.220;2023-07-09T04:35:43;8.40;;;3.90;;
1715;SDS011;855;48.824;9.220;2023-07-09T04:38:10;11.17;;;5.43;;
1715;SDS011;855;48.824;9.220;2023-07-09T04:40:39;7.43;;;2.97;;
1715;SDS011;855;48.824;9.220;2023-07-09T04:43:06;4.63;;;2.80;;
1715;SDS011;855;48.824;9.220;2023-07-09T04:45:33;5.50;;;3.17;;
1715;SDS011;855;48.824;9.220;2023-07-09T04:48:00;5.50;;;2.93;;
1715;SDS011;855;48.824;9.220;2023-07-09T04:50:28;4.13;;;2.33;;
1715;SDS011;855;48.824;9.220;2023-07-09T04:52:56;4.67;;;2.53;;
1715;SDS011;855;48.824;9.220;2023-07-09T04:55:24;13.13;;;4.40;;
1715;SDS011;855;48.824;9.220;2023-07-09T04:57:53;7.70;;;2.97;;
1715;SDS011;855;48.824;9.220;2023-07-09T05:00:20;5.67;;;2.90;;
1715;SDS011;855;48.824;9.220;2023-07-09T05:02:48;7.30;;;3.40;;
1715;SDS011;855;48.824;9.220;2023-07-09T05:05:15;6.07;;;2.83;;
1715;SDS011;855;48.824;9.220;2023-07-09T05:07:42;4.77;;;2.00;;
1715;SDS011;855;48.824;9.220;2023-07-09T05:10:09;7.23;;;2.77;;
1715;SDS011;855;48.824;9.220;2023-07-09T05:12:46;6.03;;;2.97;;
1715;SDS011;855;48.824;9.220;2023-07-09T05:15:28;3.30;;;2.50;;
1715;SDS011;855;48.824;9.220;2023-07-09T05:17:56;4.70;;;2.87;;
1715;SDS011;855;48.824;9.220;2023-07-09T05:20:23;4.83;;;2.97;;
1715;SDS011;855;48.824;9.220;2023-07-09T05:22:55;6.50;;;3.10;;
1715;SDS011;855;48.824;9.220;2023-07-09T05:25:22;4.23;;;2.43;;
1715;SDS011;855;48.824;9.220;2023-07-09T05:27:48;4.03;;;2.67;;
1715;SDS011;855;48.824;9.220;2023-07-09T05:30:16;7.70;;;3.57;;
1715;SDS011;855;48.824;9.220;2023-07-09T05:32:45;7.30;;;2.80;;
1715;SDS011;855;48.824;9.220;2023-07-09T05:35:12;5.40;;;2.57;;
1715;SDS011;855;48.824;9.220;2023-07-09T05:37:38;6.50;;;4.87;;
1715;SDS011;855;48.824;9.220;2023-07-09T05:40:06;6.80;;;3.53;;
1715;SDS011;855;48.824;9.220;2023-07-09T05:42:34;6.70;;;3.03;;
1715;SDS011;855;48.824;9.220;2023-07-09T05:45:01;7.03;;;2.97;;
1715;SDS011;855;48.824;9.220;2023-07-09T05:47:28;7.43;;;3.40;;
1715;SDS011;855;48.824;9.220;2023-07-09T05:49:56;6.30;;;2.93;;
1715;SDS011;855;48.824;9.220;2023-07-09T05:52:23;7.27;;;2.90;;
1715;SDS011;855;48.824;9.220;2023-07-09T05:54:50;5.97;;;2.40;;
1715;SDS011;855;48.824;9.220;2023-07-09T05:57:18;6.30;;;3.00;;
1715;SDS011;855;48.824;9.220;2023-07-09T05:59:45;7.33;;;2.77;;
1715;SDS011;855;48.824;9.220;2023-07-09T06:02:12;6.67;;;2.63;;
1715;SDS011;855;48.824;9.220;2023-07-09T06:04:40;5.77;;;2.20;;
1715;SDS011;855;48.824;9.220;2023-07-09T06:07:08;5.70;;;3.23;;
1715;SDS011;855;48.824;9.220;2023-07-09T06:09:39;5.97;;;3.63;;
1715;SDS011;855;48.824;9.220;2023-07-09T06:12:06;9.13;;;3.40;;
1715;SDS011;855;48.824;9.220;2023-07-09T06:14:34;5.37;;;3.00;;
1715;SDS011;855;48.824;9.220;2023-07-09T06:17:01;6.57;;;3.27;;
1715;SDS011;855;48.824;9.220;2023-07-09T06:19:28;4.10;;;2.90;;
1715;SDS011;855;48.824;9.220;2023-07-09T06:21:55;5.17;;;3.00;;
1715;SDS011;855;48.824;9.220;2023-07-09T06:24:23;3.90;;;2.47;;
1715;SDS011;855;48.824;9.220;2023-07-09T06:26:50;7.50;;;2.83;;
1715;SDS011;855;48.824;9.220;2023-07-09T06:29:17;6.90;;;3.13;;
1715;SDS011;855;48.824;9.220;2023-07-09T06:31:44;5.70;;;3.10;;
1715;SDS011;855;48.824;9.220;2023-07-09T06:34:11;11.73;;;3.53;;
1715;SDS011;855;48.824;9.220;2023-07-09T06:36:38;7.00;;;2.87;;
1715;SDS011;855;48.824;9.220;2023-07-09T06:39:05;8.90;;;3.17;;
1715;SDS011;855;48.824;9.220;2023-07-09T06:41:33;7.00;;;3.20;;
1715;SDS011;855;48.824;9.220;2023-07-09T06:44:04;4.17;;;2.90;;
1715;SDS011;855;48.824;9.220;2023-07-09T06:46:31;5.07;;;2.60;;
1715;SDS011;855;48.824;9.220;2023-07-09T06:48:58;9.10;;;3.70;;
1715;SDS011;855;48.824;9.220;2023-07-09T06:51:24;6.70;;;3.30;;
1715;SDS011;855;48.824;9.220;2023-07-09T06:53:51;6.07;;;2.80;;
1715;SDS011;855;48.824;9.220;2023-07-09T06:56:18;5.90;;;3.20;;
1715;SDS011;855;48.824;9.220;2023-07-09T06:58:46;3.83;;;2.70;;
1715;SDS011;855;48.824;9.220;2023-07-09T07:01:13;5.20;;;3.00;;
1715;SDS011;855;48.824;9.220;2023-07-09T07:03:40;6.30;;;2.87;;
1715;SDS011;855;48.824;9.220;2023-07-09T07:06:07;6.20;;;3.00;;
1715;SDS011;855;48.824;9.220;2023-07-09T07:08:34;7.93;;;3.20;;
1715;SDS011;855;48.824;9.220;2023-07-09T07:11:02;9.73;;;2.83;;
1715;SDS011;855;48.824;9.220;2023-07-09T07:13:31;4.00;;;2.83;;
1715;SDS011;855;48.824;9.220;2023-07-09T07:16:01;8.30;;;3.37;;
1715;SDS011;855;48.824;9.220;2023-07-09T07:18:28;4.90;;;3.23;;
1715;SDS011;855;48.824;9.220;2023-07-09T07:20:55;5.17;;;3.60;;
1715;SDS011;855;48.824;9.220;2023-07-09T07:23:22;6.90;;;2.73;;
1715;SDS011;855;48.824;9.220;2023-07-09T07:25:49;5.80;;;3.50;;
1715;SDS011;855;48.824;9.220;2023-07-09T07:28:16;5.93;;;2.87;;
1715;SDS011;855;48.824;9.220;2023-07-09T07:30:44;4.60;;;3.03;;
1715;SDS011;855;48.824;9.220;2023-07-09T07:33:13;8.23;;;3.23;;
1715;SDS011;855;48.824;9.220;2023-07-09T07:35:40;6.20;;;3.10;;
1715;SDS011;855;48.824;9.220;2023-07-09T07:38:07;8.83;;;3.90;;
1715;SDS011;855;48.824;9.220;2023-07-09T07:40:33;4.60;;;2.87;;
1715;SDS011;855;48.824;9.220;2023-07-09T07:43:00;4.20;;;3.13;;
1715;SDS011;855;48.824;9.220;2023-07-09T07:45:27;5.50;;;2.63;;
1715;SDS011;855;48.824;9.220;2023-07-09T07:47:54;6.73;;;3.60;;
1715;SDS011;855;48.824;9.220;2023-07-09T07:50:22;4.13;;;3.20;;
1715;SDS011;855;48.824;9.220;2023-07-09T07:52:49;8.57;;;3.50;;
1715;SDS011;855;48.824;9.220;2023-07-09T07:55:16;8.17;;;2.67;;
1715;SDS011;855;48.824;9.220;2023-07-09T07:57:43;6.57;;;3.30;;
1715;SDS011;855;48.824;9.220;2023-07-09T08:00:10;7.93;;;2.90;;
1715;SDS011;855;48.824;9.220;2023-07-09T08:02:38;5.97;;;3.33;;
1715;SDS011;855;48.824;9.220;2023-07-09T08:05:05;5.10;;;2.90;;
1715;SDS011;855;48.824;9.220;2023-07-09T08:07:34;7.10;;;3.00;;
1715;SDS011;855;48.824;9.220;2023-07-09T08:10:01;6.07;;;3.87;;
1715;SDS011;855;48.824;9.220;2023-07-09T08:12:28;4.40;;;2.90;;
1715;SDS011;855;48.824;9.220;2023-07-09T08:14:55;3.60;;;2.37;;
1715;SDS011;855;48.824;9.220;2023-07-09T08:17:23;4.83;;;3.07;;
1715;SDS011;855;48.824;9.220;2023-07-09T08:19:51;4.03;;;2.77;;
1715;SDS011;855;48.824;9.220;2023-07-09T08:22:20;8.10;;;3.00;;
1715;SDS011;855;48.824;9.220;2023-07-09T08:24:49;8.00;;;2.70;;
1715;SDS011;855;48.824;9.220;2023-07-09T08:27:18;3.67;;;2.27;;
1715;SDS011;855;48.824;9.220;2023-07-09T08:29:45;5.13;;;2.57;;
1715;SDS011;855;48.824;9.220;2023-07-09T08:32:12;6.20;;;2.60;;
1715;SDS011;855;48.824;9.220;2023-07-09T08:34:39;5.40;;;2.70;;
1715;SDS011;855;48.824;9.220;2023-07-09T08:37:07;5.47;;;2.30;;
1715;SDS011;855;48.824;9.220;2023-07-09T08:39:35;3.90;;;2.40;;
1715;SDS011;855;48.824;9.220;2023-07-09T08:42:05;7.13;;;3.43;;
1715;SDS011;855;48.824;9.220;2023-07-09T08:44:49;6.93;;;2.53;;
1715;SDS011;855;48.824;9.220;2023-07-09T08:47:29;5.40;;;2.43;;
1715;SDS011;855;48.824;9.220;2023-07-09T08:50:04;8.00;;;3.40;;
1715;SDS011;855;48.824;9.220;2023-07-09T08:52:36;5.50;;;2.67;;
1715;SDS011;855;48.824;9.220;2023-07-09T08:55:06;7.60;;;2.57;;
1715;SDS011;855;48.824;9.220;2023-07-09T08:57:38;4.50;;;2.17;;
1715;SDS011;855;48.824;9.220;2023-07-09T09:00:13;6.23;;;2.40;;
1715;SDS011;855;48.824;9.220;2023-07-09T09:02:44;7.13;;;2.17;;
1715;SDS011;855;48.824;9.220;2023-07-09T09:05:17;6.20;;;2.53;;
1715;SDS011;855;48.824;9.220;2023-07-09T09:07:47;9.67;;;3.97;;
1715;SDS011;855;48.824;9.220;2023-07-09T09:10:21;4.03;;;2.90;;
1715;SDS011;855;48.824;9.220;2023-07-09T09:13:01;5.40;;;2.90;;
1715;SDS011;855;48.824;9.220;2023-07-09T09:15:36;6.33;;;3.00;;
1715;SDS011;855;48.824;9.220;2023-07-09T09:20:53;4.00;;;2.50;;
1715;SDS011;855;48.824;9.220;2023-07-09T09:23:25;8.47;;;3.17;;
1715;SDS011;855;48.824;9.220;2023-07-09T09:25:57;3.73;;;2.43;;
1715;SDS011;855;48.824;9.220;2023-07-09T09:28:29;10.13;;;3.37;;
1715;SDS011;855;48.824;9.220;2023-07-09T09:31:01;3.40;;;2.30;;
1715;SDS011;855;48.824;9.220;2023-07-09T09:33:36;5.47;;;2.93;;
1715;SDS011;855;48.824;9.220;2023-07-09T09:36:11;6.73;;;2.37;;
1715;SDS011;855;48.824;9.220;2023-07-09T09:38:41;3.17;;;2.57;;
1715;SDS011;855;48.824;9.220;2023-07-09T09:41:12;5.60;;;2.80;;
1715;SDS011;855;48.824;9.220;2023-07-09T09:43:43;4.27;;;2.57;;
1715;SDS011;855;48.824;9.220;2023-07-09T09:46:16;5.80;;;2.47;;
1715;SDS011;855;48.824;9.220;2023-07-09T09:48:45;7.20;;;3.37;;
1715;SDS011;855;48.824;9.220;2023-07-09T09:51:13;5.77;;;2.80;;
1715;SDS011;855;48.824;9.220;2023-07-09T09:53:44;7.13;;;3.17;;
1715;SDS011;855;48.824;9.220;2023-07-09T09:56:14;4.50;;;2.07;;
1715;SDS011;855;48.824;9.220;2023-07-09T09:58:45;3.57;;;2.23;;
1715;SDS011;855;48.824;9.220;2023-07-09T10:01:17;5.13;;;2.67;;
1715;SDS011;855;48.824;9.220;2023-07-09T10:03:47;6.27;;;2.97;;
1715;SDS011;855;48.824;9.220;2023-07-09T10:06:25;5.82;;;2.28;;
1715;SDS011;855;48.824;9.220;2023-07-09T10:09:01;3.73;;;2.23;;
1715;SDS011;855;48.824;9.220;2023-07-09T10:11:37;3.77;;;2.07;;
1715;SDS011;855;48.824;9.220;2023-07-09T10:14:16;3.67;;;2.00;;
1715;SDS011;855;48.824;9.220;2023-07-09T10:16:56;3.63;;;2.37;;
1715;SDS011;855;48.824;9.220;2023-07-09T10:19:31;3.23;;;1.90;;
1715;SDS011;855;48.824;9.220;2023-07-09T10:22:04;4.67;;;2.00;;
1715;SDS011;855;48.824;9.220;2023-07-09T10:24:37;3.90;;;1.83;;
1715;SDS011;855;48.824;9.220;2023-07-09T10:27:16;2.60;;;1.53;;
1715;SDS011;855;48.824;9.220;2023-07-09T10:29:52;12.27;;;2.83;;
1715;SDS011;855;48.824;9.220;2023-07-09T10:32:38;2.30;;;1.33;;
1715;SDS011;855;48.824;9.220;2023-07-09T10:35:18;3.50;;;1.93;;
1715;SDS011;855;48.824;9.220;2023-07-09T10:37:55;3.20;;;2.37;;
1715;SDS011;855;48.824;9.220;2023-07-09T10:40:31;4.60;;;2.30;;
1715;SDS011;855;48.824;9.220;2023-07-09T10:43:02;3.50;;;2.00;;
1715;SDS011;855;48.824;9.220;2023-07-09T10:45:33;3.63;;;1.40;;
1715;SDS011;855;48.824;9.220;2023-07-09T10:48:07;4.57;;;2.10;;
1715;SDS011;855;48.824;9.220;2023-07-09T10:50:39;8.83;;;1.87;;
1715;SDS011;855;48.824;9.220;2023-07-09T10:53:28;6.33;;;1.70;;
1715;SDS011;855;48.824;9.220;2023-07-09T10:56:00;2.70;;;1.50;;
1715;SDS011;855;48.824;9.220;2023-07-09T10:58:34;3.40;;;1.90;;
1715;SDS011;855;48.824;9.220;2023-07-09T11:01:04;4.43;;;2.10;;
1715;SDS011;855;48.824;9.220;2023-07-09T11:03:38;4.23;;;2.43;;
1715;SDS011;855;48.824;9.220;2023-07-09T11:06:11;4.53;;;1.60;;
1715;SDS011;855;48.824;9.220;2023-07-09T11:08:45;8.70;;;2.93;;
1715;SDS011;855;48.824;9.220;2023-07-09T11:11:20;3.60;;;1.93;;
1715;SDS011;855;48.824;9.220;2023-07-09T11:13:52;12.00;;;2.00;;
1715;SDS011;855;48.824;9.220;2023-07-09T11:16:25;5.90;;;2.13;;
1715;SDS011;855;48.824;9.220;2023-07-09T11:18:58;3.87;;;1.90;;
1715;SDS011;855;48.824;9.220;2023-07-09T11:21:27;4.77;;;1.90;;
1715;SDS011;855;48.824;9.220;2023-07-09T11:23:57;7.83;;;2.10;;
1715;SDS011;855;48.824;9.220;2023-07-09T11:26:26;5.63;;;2.30;;
1715;SDS011;855;48.824;9.220;2023-07-09T11:28:55;3.93;;;2.50;;
1715;SDS011;855;48.824;9.220;2023-07-09T11:31:36;4.27;;;2.00;;
1715;SDS011;855;48.824;9.220;2023-07-09T11:34:07;3.37;;;1.63;;
1715;SDS011;855;48.824;9.220;2023-07-09T11:36:46;6.40;;;2.50;;
1715;SDS011;855;48.824;9.220;2023-07-09T11:39:20;11.33;;;2.90;;
1715;SDS011;855;48.824;9.220;2023-07-09T11:41:47;4.70;;;2.20;;
1715;SDS011;855;48.824;9.220;2023-07-09T11:44:16;5.10;;;1.70;;
1715;SDS011;855;48.824;9.220;2023-07-09T11:46:49;4.83;;;1.93;;
1715;SDS011;855;48.824;9.220;2023-07-09T11:49:34;3.40;;;1.77;;
1715;SDS011;855;48.824;9.220;2023-07-09T11:52:18;2.73;;;1.80;;
1715;SDS011;855;48.824;9.220;2023-07-09T11:54:51;8.33;;;3.00;;
1715;SDS011;855;48.824;9.220;2023-07-09T11:57:19;4.53;;;2.77;;
1715;SDS011;855;48.824;9.220;2023-07-09T11:59:46;4.50;;;2.40;;
1715;SDS011;855;48.824;9.220;2023-07-09T12:02:14;6.47;;;2.43;;
1715;SDS011;855;48.824;9.220;2023-07-09T12:04:44;3.93;;;2.20;;
1715;SDS011;855;48.824;9.220;2023-07-09T12:07:15;5.80;;;2.50;;
1715;SDS011;855;48.824;9.220;2023-07-09T12:09:47;3.00;;;2.07;;
1715;SDS011;855;48.824;9.220;2023-07-09T12:12:19;6.13;;;2.10;;
1715;SDS011;855;48.824;9.220;2023-07-09T12:14:48;5.97;;;2.53;;
1715;SDS011;855;48.824;9.220;2023-07-09T12:17:15;11.03;;;2.07;;
1715;SDS011;855;48.824;9.220;2023-07-09T12:19:42;5.33;;;1.93;;
1715;SDS011;855;48.824;9.220;2023-07-09T12:22:10;4.00;;;2.03;;
1715;SDS011;855;48.824;9.220;2023-07-09T12:24:43;5.53;;;1.80;;
1715;SDS011;855;48.824;9.220;2023-07-09T12:27:20;6.37;;;2.40;;
1715;SDS011;855;48.824;9.220;2023-07-09T12:29:50;11.27;;;2.37;;
1715;SDS011;855;48.824;9.220;2023-07-09T12:32:18;5.43;;;2.20;;
1715;SDS011;855;48.824;9.220;2023-07-09T12:34:49;6.97;;;2.20;;
1715;SDS011;855;48.824;9.220;2023-07-09T12:37:17;3.57;;;2.20;;
1715;SDS011;855;48.824;9.220;2023-07-09T12:39:48;5.47;;;2.70;;
1715;SDS011;855;48.824;9.220;2023-07-09T12:42:17;3.10;;;1.90;;
1715;SDS011;855;48.824;9.220;2023-07-09T12:44:50;4.87;;;2.53;;
1715;SDS011;855;48.824;9.220;2023-07-09T12:47:17;6.13;;;2.80;;
1715;SDS011;855;48.824;9.220;2023-07-09T12:49:45;5.60;;;2.70;;
1715;SDS011;855;48.824;9.220;2023-07-09T12:52:17;5.63;;;2.27;;
1715;SDS011;855;48.824;9.220;2023-07-09T12:54:52;5.47;;;2.80;;
1715;SDS011;855;48.824;9.220;2023-07-09T12:57:23;4.50;;;1.90;;
1715;SDS011;855;48.824;9.220;2023-07-09T12:59:51;4.13;;;2.13;;
1715;SDS011;855;48.824;9.220;2023-07-09T13:02:20;14.70;;;2.70;;
1715;SDS011;855;48.824;9.220;2023-07-09T13:04:48;5.47;;;2.77;;
1715;SDS011;855;48.824;9.220;2023-07-09T13:07:27;6.37;;;2.50;;
1715;SDS011;855;48.824;9.220;2023-07-09T13:09:58;3.93;;;1.57;;
1715;SDS011;855;48.824;9.220;2023-07-09T13:12:33;4.73;;;2.50;;
1715;SDS011;855;48.824;9.220;2023-07-09T13:15:00;7.23;;;2.70;;
1715;SDS011;855;48.824;9.220;2023-07-09T13:17:29;4.40;;;2.73;;
1715;SDS011;855;48.824;9.220;2023-07-09T13:19:56;8.50;;;3.27;;
1715;SDS011;855;48.824;9.220;2023-07-09T13:22:24;5.93;;;2.50;;
1715;SDS011;855;48.824;9.220;2023-07-09T13:24:51;6.60;;;2.70;;
1715;SDS011;855;48.824;9.220;2023-07-09T13:27:18;5.37;;;2.37;;
1715;SDS011;855;48.824;9.220;2023-07-09T13:29:46;3.60;;;2.13;;
1715;SDS011;855;48.824;9.220;2023-07-09T13:32:14;4.50;;;2.40;;
1715;SDS011;855;48.824;9.220;2023-07-09T13:34:42;7.10;;;2.43;;
1715;SDS011;855;48.824;9.220;2023-07-09T13:37:10;4.53;;;1.83;;
1715;SDS011;855;48.824;9.220;2023-07-09T13:39:38;6.87;;;2.60;;
1715;SDS011;855;48.824;9.220;2023-07-09T13:42:08;4.33;;;2.33;;
1715;SDS011;855;48.824;9.220;2023-07-09T13:44:38;3.20;;;1.80;;
1715;SDS011;855;48.824;9.220;2023-07-09T13:47:09;5.43;;;2.57;;
1715;SDS011;855;48.824;9.220;2023-07-09T13:49:39;7.87;;;2.20;;
1715;SDS011;855;48.824;9.220;2023-07-09T13:52:08;11.07;;;3.17;;
1715;SDS011;855;48.824;9.220;2023-07-09T13:54:40;11.13;;;2.07;;
1715;SDS011;855;48.824;9.220;2023-07-09T13:57:09;4.63;;;3.27;;
1715;SDS011;855;48.824;9.220;2023-07-09T13:59:39;3.93;;;2.43;;
1715;SDS011;855;48.824;9.220;2023-07-09T14:02:13;8.20;;;2.83;;
1715;SDS011;855;48.824;9.220;2023-07-09T14:04:45;12.93;;;2.40;;
1715;SDS011;855;48.824;9.220;2023-07-09T14:07:13;6.93;;;2.43;;
1715;SDS011;855;48.824;9.220;2023-07-09T14:09:50;7.73;;;2.03;;
1715;SDS011;855;48.824;9.220;2023-07-09T14:12:17;6.97;;;1.97;;
1715;SDS011;855;48.824;9.220;2023-07-09T14:14:44;7.23;;;2.40;;
1715;SDS011;855;48.824;9.220;2023-07-09T14:17:13;8.77;;;2.30;;
1715;SDS011;855;48.824;9.220;2023-07-09T14:19:39;4.43;;;2.13;;
1715;SDS011;855;48.824;9.220;2023-07-09T14:22:14;7.77;;;2.30;;
1715;SDS011;855;48.824;9.220;2023-07-09T14:24:52;6.03;;;2.53;;
1715;SDS011;855;48.824;9.220;2023-07-09T14:27:19;8.33;;;2.60;;
1715;SDS011;855;48.824;9.220;2023-07-09T14:29:46;2.77;;;1.30;;
1715;SDS011;855;48.824;9.220;2023-07-09T14:32:32;3.37;;;1.70;;
1715;SDS011;855;48.824;9.220;2023-07-09T14:35:01;3.90;;;2.10;;
1715;SDS011;855;48.824;9.220;2023-07-09T14:37:30;4.70;;;2.40;;
1715;SDS011;855;48.824;9.220;2023-07-09T14:39:57;9.03;;;2.37;;
1715;SDS011;855;48.824;9.220;2023-07-09T14:42:24;6.83;;;2.70;;
1715;SDS011;855;48.824;9.220;2023-07-09T14:44:50;4.10;;;2.50;;
1715;SDS011;855;48.824;9.220;2023-07-09T14:47:18;4.17;;;2.20;;
1715;SDS011;855;48.824;9.220;2023-07-09T14:49:48;3.13;;;1.80;;
1715;SDS011;855;48.824;9.220;2023-07-09T14:52:18;4.73;;;2.47;;
1715;SDS011;855;48.824;9.220;2023-07-09T14:54:46;3.23;;;1.83;;
1715;SDS011;855;48.824;9.220;2023-07-09T14:57:17;6.20;;;2.30;;
1715;SDS011;855;48.824;9.220;2023-07-09T14:59:45;9.60;;;2.73;;
1715;SDS011;855;48.824;9.220;2023-07-09T15:02:19;5.43;;;1.90;;
1715;SDS011;855;48.824;9.220;2023-07-09T15:04:50;4.10;;;2.23;;
1715;SDS011;855;48.824;9.220;2023-07-09T15:07:16;4.80;;;2.53;;
1715;SDS011;855;48.824;9.220;2023-07-09T15:09:43;8.30;;;3.70;;
1715;SDS011;855;48.824;9.220;2023-07-09T15:12:15;4.00;;;2.10;;
1715;SDS011;855;48.824;9.220;2023-07-09T15:14:44;2.50;;;1.90;;
1715;SDS011;855;48.824;9.220;2023-07-09T15:17:11;3.67;;;1.57;;
1715;SDS011;855;48.824;9.220;2023-07-09T15:19:39;9.47;;;2.30;;
1715;SDS011;855;48.824;9.220;2023-07-09T15:22:09;4.00;;;2.03;;
1715;SDS011;855;48.824;9.220;2023-07-09T15:24:44;3.57;;;2.43;;
1715;SDS011;855;48.824;9.220;2023-07-09T15:27:13;3.80;;;2.17;;
1715;SDS011;855;48.824;9.220;2023-07-09T15:29:40;7.57;;;2.13;;
1715;SDS011;855;48.824;9.220;2023-07-09T15:32:07;2.90;;;1.80;;
1715;SDS011;855;48.824;9.220;2023-07-09T15:34:34;6.80;;;1.90;;
1715;SDS011;855;48.824;9.220;2023-07-09T15:37:01;5.60;;;2.50;;
1715;SDS011;855;48.824;9.220;2023-07-09T15:39:36;3.07;;;1.57;;
1715;SDS011;855;48.824;9.220;2023-07-09T15:42:04;4.17;;;2.10;;
1715;SDS011;855;48.824;9.220;2023-07-09T15:44:35;4.70;;;2.20;;
1715;SDS011;855;48.824;9.220;2023-07-09T15:47:02;5.47;;;2.47;;
1715;SDS011;855;48.824;9.220;2023-07-09T15:49:31;10.13;;;2.50;;